Time;durP1;ratioP1;P1;durP2;ratioP2;P2;SDS_P1;SDS_P2;PMS_P1;PMS_P2;Temp;Humidity;BMP_temperature;BMP_pressure;BME280_temperature;BME280_humidity;BME280_pressure;Samples;Min_cycle;Max_cycle;Signal;HPM_P1;HPM_P2
2021/05/10 00:01:59;;;;;;;0.10;0.10;;;;;;;28.46;15.36;98095.09;5054270;28;20519;-83
2021/05/10 00:04:25;;;;;;;0.63;0.20;;;;;;;28.70;15.09;98096.19;5049732;28;20033;-84
2021/05/10 00:06:51;;;;;;;0.20;0.20;;;;;;;28.70;15.37;98101.03;5048609;28;20034;-84
2021/05/10 00:09:17;;;;;;;0.40;0.20;;;;;;;28.75;15.14;98103.28;5055424;28;20107;-84
2021/05/10 00:11:43;;;;;;;1.00;0.30;;;;;;;28.50;15.19;98097.78;5051708;28;20040;-83
2021/05/10 00:14:11;;;;;;;0.20;0.20;;;;;;;28.42;15.25;98102.94;5055033;28;20052;-84
2021/05/10 00:16:37;;;;;;;0.25;0.20;;;;;;;28.45;14.97;98090.69;5052965;28;21580;-84
2021/05/10 00:19:03;;;;;;;0.77;0.30;;;;;;;28.51;14.99;98088.84;5050173;28;20029;-84
2021/05/10 00:21:30;;;;;;;0.20;0.20;;;;;;;28.37;15.30;98085.78;5053394;28;20040;-84
2021/05/10 00:23:56;;;;;;;0.20;0.20;;;;;;;28.39;15.25;98094.59;5055114;28;20061;-84
2021/05/10 00:26:22;;;;;;;0.55;0.30;;;;;;;28.47;15.31;98091.00;5054179;28;20029;-84
2021/05/10 00:28:48;;;;;;;0.25;0.20;;;;;;;28.48;14.82;98086.94;5055120;28;20044;-84
2021/05/10 00:31:15;;;;;;;0.30;0.20;;;;;;;28.27;15.66;98089.81;5035922;28;20467;-84
2021/05/10 00:33:41;;;;;;;0.30;0.30;;;;;;;28.35;15.12;98091.91;5054832;28;20037;-84
2021/05/10 00:36:07;;;;;;;0.25;0.20;;;;;;;28.46;15.22;98094.31;5052746;28;20437;-83
2021/05/10 00:38:33;;;;;;;0.82;0.40;;;;;;;28.47;15.43;98095.91;5046629;28;20540;-83
2021/05/10 00:40:59;;;;;;;0.30;0.25;;;;;;;28.48;15.22;98086.94;5051405;28;20032;-84
2021/05/10 00:43:25;;;;;;;0.30;0.30;;;;;;;28.53;15.14;98079.91;5054395;28;20107;-84
2021/05/10 00:45:51;;;;;;;1.08;0.20;;;;;;;28.55;14.86;98085.88;5054274;28;20037;-83
2021/05/10 00:48:18;;;;;;;0.45;0.20;;;;;;;28.75;14.76;98087.06;5053987;28;20475;-84
2021/05/10 00:50:44;;;;;;;0.10;0.10;;;;;;;28.63;15.12;98084.38;5054707;28;20039;-84
2021/05/10 00:53:10;;;;;;;2.05;0.30;;;;;;;28.27;15.06;98081.34;5052767;28;20445;-84
2021/05/10 00:55:37;;;;;;;0.43;0.35;;;;;;;28.23;15.28;98084.31;5053347;28;20113;-83
2021/05/10 00:58:03;;;;;;;0.22;0.20;;;;;;;28.24;15.04;98085.88;5053263;28;20421;-83
2021/05/10 01:00:32;;;;;;;0.35;0.30;;;;;;;28.06;15.23;98091.41;5054636;28;20121;-83
2021/05/10 01:02:59;;;;;;;0.68;0.40;;;;;;;27.67;15.73;98087.22;5039032;28;20032;-83
2021/05/10 01:05:26;;;;;;;0.43;0.20;;;;;;;27.96;15.38;98096.19;5054168;28;20029;-83
2021/05/10 01:07:52;;;;;;;0.43;0.30;;;;;;;27.93;15.37;98091.47;5047191;28;20083;-84
2021/05/10 01:10:20;;;;;;;1.38;0.30;;;;;;;28.06;15.10;98094.25;5036604;28;20492;-84
2021/05/10 01:12:47;;;;;;;1.45;0.32;;;;;;;28.06;15.16;98089.41;5046370;28;20040;-84
2021/05/10 01:15:17;;;;;;;0.50;0.30;;;;;;;28.34;14.74;98083.88;5048817;28;20032;-84
2021/05/10 01:17:44;;;;;;;0.30;0.20;;;;;;;28.59;14.58;98083.75;5052570;28;20043;-84
2021/05/10 01:20:13;;;;;;;0.28;0.20;;;;;;;28.81;14.32;98084.44;5053446;28;20037;-84
2021/05/10 01:22:42;;;;;;;0.38;0.10;;;;;;;28.80;14.37;98082.09;5035609;28;20451;-83
2021/05/10 01:25:11;;;;;;;0.47;0.30;;;;;;;28.94;14.20;98084.31;5050865;28;20033;-83
2021/05/10 01:27:37;;;;;;;1.08;0.20;;;;;;;28.87;14.29;98084.63;5052310;28;20394;-84
2021/05/10 01:30:09;;;;;;;0.47;0.40;;;;;;;28.77;14.21;98083.00;5054016;28;20494;-84
2021/05/10 01:32:35;;;;;;;0.35;0.20;;;;;;;28.56;14.48;98078.97;5053001;28;20486;-84
2021/05/10 01:35:04;;;;;;;0.45;0.20;;;;;;;28.51;14.71;98079.59;5053415;28;20393;-84
2021/05/10 01:37:30;;;;;;;0.98;0.20;;;;;;;28.53;14.53;98083.53;5051748;28;20061;-83
2021/05/10 01:39:56;;;;;;;0.30;0.20;;;;;;;28.57;14.42;98086.19;5052555;28;20040;-84
2021/05/10 01:42:22;;;;;;;0.88;0.30;;;;;;;28.36;14.73;98079.34;5054249;28;20037;-84
2021/05/10 01:44:48;;;;;;;0.30;0.30;;;;;;;28.10;14.76;98082.84;5052749;28;20482;-83
2021/05/10 01:47:14;;;;;;;0.57;0.30;;;;;;;28.16;14.72;98087.41;5053743;28;20413;-84
2021/05/10 01:49:46;;;;;;;0.95;0.28;;;;;;;28.19;14.65;98080.06;5053011;28;20029;-84
2021/05/10 01:52:14;;;;;;;1.13;0.25;;;;;;;28.13;14.81;98079.84;5053465;28;20056;-84
2021/05/10 01:54:46;;;;;;;0.38;0.30;;;;;;;27.86;15.38;98076.84;5049858;28;20032;-84
2021/05/10 01:57:12;;;;;;;0.20;0.20;;;;;;;28.00;14.84;98082.78;5042828;28;20036;-83
2021/05/10 01:59:38;;;;;;;0.88;0.20;;;;;;;28.08;14.96;98086.09;5049787;28;20033;-84
2021/05/10 02:02:05;;;;;;;0.50;0.20;;;;;;;28.06;15.02;98083.75;5046302;28;20083;-84
2021/05/10 02:05:04;;;;;;;0.70;0.28;;;;;;;27.98;15.12;98085.22;5052856;28;20099;-83
2021/05/10 02:07:30;;;;;;;0.65;0.57;;;;;;;28.22;14.72;98084.75;5052903;28;20115;-84
2021/05/10 02:09:57;;;;;;;0.40;0.40;;;;;;;27.99;15.03;98075.53;5049331;28;20029;-84
2021/05/10 02:12:23;;;;;;;0.45;0.30;;;;;;;27.63;15.57;98072.44;5046236;28;20037;-84
2021/05/10 02:14:49;;;;;;;4.03;0.52;;;;;;;27.54;15.52;98080.06;5045465;28;20095;-84
2021/05/10 02:17:15;;;;;;;0.45;0.40;;;;;;;27.71;15.20;98078.59;5034955;28;20033;-84
2021/05/10 02:19:41;;;;;;;0.30;0.25;;;;;;;27.98;15.31;98087.28;5051358;28;20136;-84
2021/05/10 02:22:07;;;;;;;0.95;0.40;;;;;;;28.17;14.70;98091.78;5048148;28;20032;-83
2021/05/10 02:24:37;;;;;;;0.32;0.20;;;;;;;28.35;14.78;98077.00;5052583;28;20038;-84
2021/05/10 02:27:04;;;;;;;0.70;0.20;;;;;;;28.41;15.26;98080.78;5052051;28;20108;-84
2021/05/10 02:29:30;;;;;;;0.30;0.20;;;;;;;28.22;14.92;98084.75;5052704;28;20033;-84
2021/05/10 02:31:56;;;;;;;0.40;0.20;;;;;;;28.22;14.76;98085.56;5034245;28;20072;-84
2021/05/10 02:34:23;;;;;;;0.30;0.30;;;;;;;27.99;14.95;98086.84;5053037;28;20040;-84
2021/05/10 02:36:50;;;;;;;2.63;0.30;;;;;;;27.58;15.24;98084.31;5049779;28;20029;-84
2021/05/10 02:39:16;;;;;;;1.85;0.30;;;;;;;27.73;15.08;98091.00;5052505;28;20138;-84
2021/05/10 02:41:42;;;;;;;3.63;0.40;;;;;;;28.04;14.97;98080.59;5051651;28;20041;-84
2021/05/10 02:44:09;;;;;;;0.60;0.30;;;;;;;28.20;14.83;98085.22;5046153;28;20029;-84
2021/05/10 02:46:35;;;;;;;1.55;0.20;;;;;;;28.61;14.41;98078.41;5051777;28;20128;-84
2021/05/10 02:49:01;;;;;;;0.38;0.20;;;;;;;28.88;13.80;98084.16;5034435;28;20037;-84
2021/05/10 02:51:27;;;;;;;0.40;0.28;;;;;;;29.05;14.06;98085.47;5045825;28;20029;-84
2021/05/10 02:53:53;;;;;;;0.85;0.28;;;;;;;28.81;14.07;98092.91;5051656;28;20036;-84
2021/05/10 02:56:19;;;;;;;2.78;0.22;;;;;;;28.49;14.61;98094.19;5049473;28;20059;-83
2021/05/10 02:58:45;;;;;;;0.30;0.25;;;;;;;28.34;15.09;98095.19;5044874;28;20187;-84
2021/05/10 03:01:11;;;;;;;1.08;0.30;;;;;;;28.48;14.60;98095.41;5048522;28;20045;-84
2021/05/10 03:03:37;;;;;;;0.88;0.30;;;;;;;28.28;14.72;98097.84;5046908;28;20083;-84
2021/05/10 03:06:03;;;;;;;0.85;0.30;;;;;;;28.60;14.50;98093.78;5034106;28;20079;-84
2021/05/10 03:08:29;;;;;;;0.52;0.30;;;;;;;28.05;14.73;98099.09;5044863;28;20067;-84
2021/05/10 03:10:55;;;;;;;2.03;0.35;;;;;;;28.13;14.59;98093.97;5051705;28;20440;-84
2021/05/10 03:13:21;;;;;;;0.30;0.20;;;;;;;28.61;14.21;98086.88;5044172;28;20068;-84
2021/05/10 03:15:47;;;;;;;0.73;0.38;;;;;;;28.96;14.27;98085.44;5052313;28;20032;-84
2021/05/10 03:18:14;;;;;;;0.30;0.22;;;;;;;29.23;14.02;98091.16;5048323;28;20028;-84
2021/05/10 03:20:40;;;;;;;1.98;0.20;;;;;;;29.09;14.09;98088.91;5052091;28;20048;-84
2021/05/10 03:23:06;;;;;;;0.40;0.20;;;;;;;29.13;14.05;98094.41;5046854;28;20021;-84
2021/05/10 03:25:32;;;;;;;0.20;0.20;;;;;;;29.15;13.90;98092.69;5049066;28;20099;-84
2021/05/10 03:27:58;;;;;;;0.25;0.25;;;;;;;28.89;14.31;98090.59;5051375;28;20075;-84
2021/05/10 03:30:25;;;;;;;0.55;0.30;;;;;;;28.93;14.35;98091.22;5051704;28;20036;-84
2021/05/10 03:32:52;;;;;;;0.52;0.20;;;;;;;28.99;14.48;98089.34;5051222;28;20082;-84
2021/05/10 03:35:19;;;;;;;1.98;0.25;;;;;;;28.87;14.29;98088.22;5052317;28;20036;-84
2021/05/10 03:37:46;;;;;;;0.50;0.22;;;;;;;29.05;14.23;98088.28;5041035;28;20064;-84
2021/05/10 03:40:15;;;;;;;3.40;0.30;;;;;;;28.66;14.37;98086.25;5047985;28;20048;-83
2021/05/10 03:42:41;;;;;;;0.30;0.30;;;;;;;28.90;14.39;98083.66;5030478;28;20057;-84
2021/05/10 03:45:09;;;;;;;0.20;0.20;;;;;;;29.49;13.94;98082.38;5050173;28;20029;-84
2021/05/10 03:47:42;;;;;;;0.25;0.20;;;;;;;30.00;13.75;98086.16;5037356;28;20490;-84
2021/05/10 03:50:18;;;;;;;0.50;0.50;;;;;;;30.14;13.63;98081.88;5043062;28;20049;-84
2021/05/10 03:52:49;;;;;;;0.70;0.30;;;;;;;30.25;13.42;98085.00;5030087;28;20427;-84
2021/05/10 03:55:18;;;;;;;0.57;0.35;;;;;;;30.92;13.06;98082.59;5041137;28;20029;-85
2021/05/10 03:57:45;;;;;;;0.60;0.28;;;;;;;31.08;13.40;98075.72;5047389;28;20037;-86
2021/05/10 04:00:13;;;;;;;0.45;0.30;;;;;;;31.13;13.03;98087.19;5045448;28;20049;-84
2021/05/10 04:02:40;;;;;;;0.57;0.20;;;;;;;31.04;12.97;98077.97;5051728;28;20120;-86
2021/05/10 04:10:39;;;;;;;2.70;0.40;;;;;;;31.87;12.25;98068.34;5035100;28;20116;-86
2021/05/10 04:15:51;;;;;;;0.52;0.30;;;;;;;32.01;12.72;98082.59;5049067;28;20048;-87
2021/05/10 04:18:17;;;;;;;0.28;0.20;;;;;;;32.42;12.41;98080.72;5042229;28;20554;-83
2021/05/10 04:20:43;;;;;;;0.57;0.30;;;;;;;32.58;12.68;98080.22;5046580;28;20096;-86
2021/05/10 04:23:10;;;;;;;0.22;0.20;;;;;;;32.20;12.64;98091.72;5051191;28;20743;-84
2021/05/10 04:25:36;;;;;;;0.45;0.30;;;;;;;31.67;12.99;98090.94;5043439;28;20379;-85
2021/05/10 04:28:03;;;;;;;0.20;0.20;;;;;;;31.88;13.15;98084.13;5042556;28;20074;-85
2021/05/10 04:30:29;;;;;;;0.20;0.20;;;;;;;31.31;12.96;98089.91;5055166;28;20040;-85
2021/05/10 04:32:59;;;;;;;0.43;0.20;;;;;;;31.57;13.12;98086.59;5046958;28;20037;-88
2021/05/10 04:35:25;;;;;;;0.13;0.13;;;;;;;31.70;13.39;98076.53;5053223;28;20040;-84
2021/05/10 04:37:51;;;;;;;0.40;0.20;;;;;;;31.80;13.24;98086.56;5048762;28;20065;-84
2021/05/10 04:40:18;;;;;;;0.63;0.30;;;;;;;31.75;13.26;98083.59;5042283;28;20029;-85
2021/05/10 04:42:45;;;;;;;0.55;0.20;;;;;;;32.83;13.09;98080.88;5040477;28;20117;-85
2021/05/10 04:45:12;;;;;;;0.57;0.20;;;;;;;33.08;12.81;98086.72;5052423;28;20036;-84
2021/05/10 04:47:38;;;;;;;0.45;0.25;;;;;;;33.15;12.00;98083.47;5051785;28;20033;-85
2021/05/10 04:50:10;;;;;;;0.20;0.20;;;;;;;33.50;11.92;98094.78;5036002;28;20378;-84
2021/05/10 04:52:36;;;;;;;1.25;0.13;;;;;;;33.42;12.22;98100.13;5048395;28;20041;-86
2021/05/10 04:55:04;;;;;;;0.30;0.20;;;;;;;32.73;11.90;98092.38;5047080;28;20032;-85
2021/05/10 04:57:30;;;;;;;0.28;0.15;;;;;;;32.42;13.04;98096.97;5047369;28;20033;-85
2021/05/10 04:59:56;;;;;;;0.90;0.20;;;;;;;32.57;13.05;98097.78;5048811;28;20029;-86
2021/05/10 05:02:23;;;;;;;0.20;0.20;;;;;;;32.79;12.47;98094.53;5050921;28;20032;-85
2021/05/10 05:04:49;;;;;;;0.63;0.20;;;;;;;32.59;12.76;98100.94;5056295;28;20502;-86
2021/05/10 05:07:15;;;;;;;0.35;0.10;;;;;;;32.65;12.91;98104.66;5054736;28;20021;-86
2021/05/10 05:09:41;;;;;;;0.15;0.10;;;;;;;33.01;12.43;98100.53;5049159;28;20170;-86
2021/05/10 05:12:07;;;;;;;0.22;0.10;;;;;;;33.28;12.84;98103.81;5047276;28;20075;-83
2021/05/10 05:14:33;;;;;;;0.93;0.32;;;;;;;33.54;13.02;98103.16;5051514;28;20065;-85
2021/05/10 05:17:00;;;;;;;0.10;0.10;;;;;;;34.00;12.65;98103.97;5054603;28;20445;-85
2021/05/10 05:19:26;;;;;;;0.40;0.20;;;;;;;34.35;12.15;98106.66;5048128;28;20021;-83
2021/05/10 05:21:52;;;;;;;0.20;0.10;;;;;;;34.60;11.98;98114.44;5053726;28;20032;-84
2021/05/10 05:24:18;;;;;;;0.08;0.08;;;;;;;34.70;11.26;98105.19;5052408;28;20560;-83
2021/05/10 05:26:44;;;;;;;0.30;0.10;;;;;;;34.75;12.35;98117.94;5050821;28;20029;-84
2021/05/10 05:29:11;;;;;;;0.10;0.10;;;;;;;34.92;11.39;98115.19;5053836;28;20064;-83
2021/05/10 05:31:37;;;;;;;0.20;0.10;;;;;;;35.16;11.80;98115.66;5046455;28;20059;-84
2021/05/10 05:34:03;;;;;;;0.47;0.20;;;;;;;34.83;11.50;98109.69;5049492;28;20024;-82
2021/05/10 05:36:29;;;;;;;0.20;0.10;;;;;;;34.32;10.87;98114.16;5052233;28;20036;-82
2021/05/10 05:38:55;;;;;;;0.10;0.10;;;;;;;34.16;11.58;98106.22;5048683;28;20025;-82
2021/05/10 05:41:21;;;;;;;0.55;0.20;;;;;;;34.38;11.64;98114.97;5053234;28;20035;-83
2021/05/10 05:43:47;;;;;;;0.10;0.10;;;;;;;33.87;12.34;98097.84;5052180;28;20075;-83
2021/05/10 05:46:15;;;;;;;0.08;0.08;;;;;;;34.22;11.64;98109.13;5053131;28;20047;-83
2021/05/10 05:48:41;;;;;;;3.10;0.10;;;;;;;33.66;11.92;98090.59;5054165;28;20112;-83
2021/05/10 05:51:11;;;;;;;0.10;0.10;;;;;;;33.72;12.04;98097.16;5052854;28;20025;-82
2021/05/10 05:53:38;;;;;;;0.10;0.10;;;;;;;33.52;12.33;98097.91;5054292;28;20033;-83
2021/05/10 05:56:04;;;;;;;0.25;0.20;;;;;;;33.63;11.41;98100.16;5050111;28;20112;-82
2021/05/10 05:58:30;;;;;;;0.85;0.20;;;;;;;33.53;11.86;98098.75;5030661;28;20067;-82
2021/05/10 06:00:57;;;;;;;0.10;0.10;;;;;;;33.89;11.62;98098.13;5045016;28;20379;-83
2021/05/10 06:03:24;;;;;;;0.10;0.10;;;;;;;33.01;11.49;98098.53;5054194;28;20033;-83
2021/05/10 06:05:50;;;;;;;1.27;0.20;;;;;;;33.11;12.15;98091.44;5050469;28;20453;-83
2021/05/10 06:08:16;;;;;;;1.52;0.30;;;;;;;33.23;12.13;98101.69;5052833;28;20029;-83
2021/05/10 06:10:43;;;;;;;0.25;0.20;;;;;;;33.31;12.02;98094.28;5052812;28;20036;-82
2021/05/10 06:13:12;;;;;;;0.10;0.10;;;;;;;33.50;11.58;98097.63;5052947;28;20074;-82
2021/05/10 06:15:38;;;;;;;0.15;0.15;;;;;;;33.37;11.47;98097.97;5052773;28;20028;-82
2021/05/10 06:18:08;;;;;;;0.50;0.10;;;;;;;33.62;11.53;98096.53;5034725;28;20024;-83
2021/05/10 06:20:34;;;;;;;0.37;0.20;;;;;;;34.23;11.53;98097.22;5052360;28;20108;-83
2021/05/10 06:23:02;;;;;;;0.15;0.10;;;;;;;34.63;11.70;98104.88;5052340;28;20929;-83
2021/05/10 06:25:29;;;;;;;0.20;0.17;;;;;;;34.59;11.07;98099.38;5052883;28;20074;-82
2021/05/10 06:27:55;;;;;;;1.60;0.10;;;;;;;34.85;11.77;98104.25;5052405;28;20033;-82
2021/05/10 06:30:21;;;;;;;0.10;0.10;;;;;;;34.72;11.21;98096.13;5052439;28;20029;-82
2021/05/10 06:32:50;;;;;;;0.88;0.13;;;;;;;34.85;11.17;98101.41;5052355;28;20025;-83
2021/05/10 06:35:17;;;;;;;0.20;0.20;;;;;;;34.79;10.98;98089.97;5051863;28;20029;-83
2021/05/10 06:37:43;;;;;;;0.20;0.20;;;;;;;34.27;11.41;98086.38;5053753;28;20032;-83
2021/05/10 06:40:10;;;;;;;1.05;0.38;;;;;;;33.41;11.32;98086.41;5053420;28;20371;-83
2021/05/10 06:42:37;;;;;;;0.20;0.20;;;;;;;33.66;11.53;98085.69;5053514;28;20106;-83
2021/05/10 06:45:07;;;;;;;0.55;0.20;;;;;;;33.55;11.57;98076.25;5052002;28;20037;-83
2021/05/10 06:47:39;;;;;;;0.15;0.15;;;;;;;33.92;11.42;98088.56;5052254;28;20037;-83
2021/05/10 06:50:07;;;;;;;0.10;0.10;;;;;;;34.49;12.24;98086.59;5051936;28;20437;-83
2021/05/10 06:52:34;;;;;;;0.20;0.15;;;;;;;34.05;11.30;98081.22;5052115;28;20079;-83
2021/05/10 06:55:01;;;;;;;0.30;0.22;;;;;;;33.88;11.40;98082.31;5048497;28;20039;-83
2021/05/10 06:57:27;;;;;;;0.10;0.10;;;;;;;34.35;11.45;98070.41;5051846;28;20081;-83
2021/05/10 06:59:53;;;;;;;1.88;0.20;;;;;;;34.21;10.75;98082.69;5053018;28;20048;-83
2021/05/10 07:02:22;;;;;;;0.20;0.15;;;;;;;33.86;11.57;98060.03;5053312;28;20037;-83
2021/05/10 07:04:48;;;;;;;0.28;0.20;;;;;;;33.85;11.52;98067.00;5035533;28;20037;-83
2021/05/10 07:07:14;;;;;;;0.10;0.10;;;;;;;34.34;10.97;98070.88;5024645;28;20029;-83
2021/05/10 07:09:40;;;;;;;0.10;0.10;;;;;;;34.77;11.06;98080.34;5051017;28;20500;-83
2021/05/10 07:12:06;;;;;;;0.00;0.00;;;;;;;35.01;11.29;98075.81;5048745;28;20057;-83
2021/05/10 07:14:33;;;;;;;0.10;0.10;;;;;;;34.35;11.67;98073.25;5051895;28;20041;-83
2021/05/10 07:16:59;;;;;;;0.28;0.20;;;;;;;33.94;11.81;98072.53;5052933;28;20037;-83
2021/05/10 07:19:26;;;;;;;0.13;0.13;;;;;;;34.21;11.63;98073.38;5053003;28;20486;-83
2021/05/10 07:21:52;;;;;;;0.10;0.10;;;;;;;34.49;12.15;98077.25;5053225;28;20087;-83
2021/05/10 07:24:18;;;;;;;0.17;0.13;;;;;;;34.27;11.13;98069.28;5052876;28;20029;-83
2021/05/10 07:26:45;;;;;;;0.32;0.20;;;;;;;34.00;11.63;98059.13;5052692;28;20021;-83
2021/05/10 07:29:11;;;;;;;0.20;0.20;;;;;;;33.91;11.56;98059.28;5052954;28;20044;-83
2021/05/10 07:31:37;;;;;;;1.60;0.10;;;;;;;34.69;11.80;98062.91;5052702;28;20041;-83
2021/05/10 07:34:03;;;;;;;0.20;0.10;;;;;;;34.06;12.00;98067.78;5053046;28;20017;-83
2021/05/10 07:36:30;;;;;;;1.08;0.20;;;;;;;34.54;11.82;98063.03;5052880;28;20040;-83
2021/05/10 07:38:56;;;;;;;0.10;0.10;;;;;;;35.05;11.53;98053.59;5052930;28;20022;-83
2021/05/10 07:41:22;;;;;;;1.15;0.68;;;;;;;35.35;10.78;98059.69;5053003;28;20039;-83
2021/05/10 07:43:48;;;;;;;0.20;0.20;;;;;;;34.93;10.94;98057.63;5052907;28;20033;-82
2021/05/10 07:46:15;;;;;;;0.25;0.20;;;;;;;35.00;10.72;98064.94;5052439;28;20131;-83
2021/05/10 07:48:41;;;;;;;0.17;0.10;;;;;;;34.19;11.51;98059.63;5034946;28;20115;-83
2021/05/10 07:51:07;;;;;;;0.57;0.30;;;;;;;33.92;10.96;98049.47;5053042;28;20029;-84
2021/05/10 07:53:33;;;;;;;0.20;0.10;;;;;;;34.50;12.04;98055.97;5043152;28;20092;-83
2021/05/10 07:56:00;;;;;;;0.10;0.10;;;;;;;34.58;11.50;98057.91;5054448;28;20092;-83
2021/05/10 07:58:26;;;;;;;0.10;0.10;;;;;;;34.97;11.55;98065.94;5056756;28;20029;-84
2021/05/10 08:01:00;;;;;;;0.75;0.20;;;;;;;34.70;11.64;98065.25;5051503;28;20032;-83
2021/05/10 08:03:29;;;;;;;0.13;0.13;;;;;;;34.94;10.79;98062.03;5038319;28;20029;-83
2021/05/10 08:05:55;;;;;;;0.20;0.10;;;;;;;35.03;11.15;98066.81;5056509;28;20033;-83
2021/05/10 08:08:23;;;;;;;0.50;0.17;;;;;;;35.53;11.81;98056.44;5056577;28;20131;-83
2021/05/10 08:10:50;;;;;;;0.10;0.10;;;;;;;35.71;10.70;98058.81;5056254;28;20120;-83
2021/05/10 08:13:17;;;;;;;0.10;0.10;;;;;;;35.96;11.53;98052.16;5056821;28;20032;-85
2021/05/10 08:15:43;;;;;;;0.60;0.10;;;;;;;35.79;10.31;98064.81;5056168;28;20033;-85
2021/05/10 08:18:11;;;;;;;0.10;0.10;;;;;;;35.99;11.22;98053.19;5056422;28;20029;-85
2021/05/10 08:20:39;;;;;;;0.90;0.25;;;;;;;36.17;10.76;98054.78;5056362;28;20044;-85
2021/05/10 08:23:05;;;;;;;1.27;0.17;;;;;;;36.08;10.31;98055.84;5056059;28;20041;-85
2021/05/10 08:25:31;;;;;;;0.10;0.10;;;;;;;35.87;10.48;98051.59;5056295;28;20033;-86
2021/05/10 08:27:57;;;;;;;0.13;0.10;;;;;;;36.18;10.89;98044.91;5056117;28;20040;-85
2021/05/10 08:30:23;;;;;;;0.10;0.00;;;;;;;35.85;10.88;98059.91;5055732;28;20032;-85
2021/05/10 08:32:49;;;;;;;0.17;0.17;;;;;;;36.17;10.47;98049.88;5038194;28;20490;-85
2021/05/10 08:35:16;;;;;;;0.10;0.10;;;;;;;36.79;10.70;98060.00;5056022;28;20021;-84
2021/05/10 08:37:42;;;;;;;0.10;0.10;;;;;;;36.63;10.67;98055.09;5056178;28;20051;-85
2021/05/10 08:40:08;;;;;;;0.10;0.10;;;;;;;36.60;10.23;98061.84;5055801;28;20039;-85
2021/05/10 08:42:35;;;;;;;0.25;0.20;;;;;;;36.79;10.69;98057.16;5055818;28;20037;-85
2021/05/10 08:45:01;;;;;;;0.15;0.10;;;;;;;37.20;10.59;98060.97;5055816;28;20121;-85
2021/05/10 08:47:34;;;;;;;0.57;0.30;;;;;;;36.92;10.24;98053.78;5055489;28;20132;-84
2021/05/10 08:50:06;;;;;;;0.10;0.10;;;;;;;36.19;10.62;98050.13;5056185;28;20025;-84
2021/05/10 08:52:34;;;;;;;0.10;0.10;;;;;;;36.22;11.09;98054.81;5041745;28;20041;-84
2021/05/10 08:55:01;;;;;;;0.20;0.15;;;;;;;36.18;10.38;98053.47;5049807;28;20116;-85
2021/05/10 08:57:27;;;;;;;0.20;0.20;;;;;;;36.17;11.31;98044.16;5055460;28;20029;-85
2021/05/10 08:59:53;;;;;;;0.20;0.20;;;;;;;36.01;10.76;98044.91;5055262;28;20059;-86
2021/05/10 09:02:30;;;;;;;0.20;0.20;;;;;;;36.16;12.62;98039.72;5050821;28;20486;-84
2021/05/10 09:05:18;;;;;;;0.10;0.10;;;;;;;36.17;10.99;98029.06;5033641;28;20116;-85
2021/05/10 09:07:45;;;;;;;0.70;0.10;;;;;;;36.59;11.47;98031.69;5046980;28;20033;-84
2021/05/10 09:10:13;;;;;;;0.17;0.17;;;;;;;36.69;11.65;98032.97;5035384;28;20547;-84
2021/05/10 09:12:52;;;;;;;0.10;0.10;;;;;;;36.57;9.80;98034.31;5054956;28;20033;-84
2021/05/10 09:15:36;;;;;;;0.03;0.03;;;;;;;37.05;10.40;98031.88;5041743;28;20054;-87
2021/05/10 09:18:07;;;;;;;0.10;0.10;;;;;;;36.89;11.79;98023.31;5046691;28;20547;-83
2021/05/10 09:20:41;;;;;;;1.45;0.08;;;;;;;36.73;9.99;98013.47;5051379;28;20033;-85
2021/05/10 09:23:11;;;;;;;0.43;0.30;;;;;;;36.41;10.87;98027.25;5050879;28;20037;-84
2021/05/10 09:25:39;;;;;;;0.10;0.10;;;;;;;36.92;10.97;98017.38;5054943;28;20029;-87
2021/05/10 09:28:23;;;;;;;0.20;0.10;;;;;;;37.08;12.53;98022.25;5054544;28;20029;-88
2021/05/10 09:30:50;;;;;;;0.35;0.10;;;;;;;36.31;13.55;98028.81;5050451;28;20029;-88
2021/05/10 09:33:27;;;;;;;0.10;0.10;;;;;;;36.68;12.06;98017.91;5054225;28;20029;-87
2021/05/10 09:35:55;;;;;;;0.10;0.10;;;;;;;37.08;12.20;98021.47;5058180;28;20057;-88
2021/05/10 09:38:24;;;;;;;0.10;0.10;;;;;;;37.53;11.89;98016.38;5046666;28;20045;-88
2021/05/10 09:41:04;;;;;;;0.10;0.10;;;;;;;37.08;10.64;98027.19;5045018;28;20508;-87
2021/05/10 09:43:36;;;;;;;0.28;0.10;;;;;;;37.12;11.49;98028.47;5048963;28;20064;-89
2021/05/10 09:46:12;;;;;;;0.10;0.10;;;;;;;36.86;10.91;98022.28;5049265;28;20043;-89
2021/05/10 09:48:40;;;;;;;1.15;0.75;;;;;;;37.46;10.75;98023.41;5030857;28;20124;-88
2021/05/10 09:51:17;;;;;;;0.20;0.20;;;;;;;37.60;10.47;98013.72;5043188;28;20478;-88
2021/05/10 09:53:50;;;;;;;0.22;0.20;;;;;;;36.41;11.23;98021.50;5057062;28;20026;-87
2021/05/10 09:56:27;;;;;;;0.10;0.10;;;;;;;36.91;10.41;98017.84;5049920;28;20037;-86
2021/05/10 09:58:58;;;;;;;0.28;0.10;;;;;;;37.26;11.02;98010.22;5045696;28;20037;-85
2021/05/10 10:01:36;;;;;;;0.10;0.10;;;;;;;37.71;11.44;98007.94;5051123;28;20044;-86
2021/05/10 10:04:03;;;;;;;0.10;0.10;;;;;;;37.89;11.11;98001.59;5047001;28;20044;-88
2021/05/10 10:06:29;;;;;;;1.20;0.20;;;;;;;37.53;10.76;97990.59;5043300;28;20029;-88
2021/05/10 10:08:56;;;;;;;0.40;0.10;;;;;;;37.98;10.80;98001.25;5037074;28;20440;-88
2021/05/10 10:11:23;;;;;;;0.40;0.10;;;;;;;38.15;11.37;97986.81;5045739;28;20033;-87
2021/05/10 10:13:51;;;;;;;0.20;0.20;;;;;;;37.86;10.19;97987.53;5054012;28;20044;-85
2021/05/10 10:16:21;;;;;;;0.82;0.20;;;;;;;37.58;10.61;97989.75;5049947;28;20033;-85
2021/05/10 10:18:48;;;;;;;0.20;0.20;;;;;;;37.41;10.43;97987.00;5046865;28;20109;-85
2021/05/10 10:21:17;;;;;;;0.10;0.10;;;;;;;37.76;11.78;97992.00;5032340;28;20167;-85
2021/05/10 10:23:51;;;;;;;0.70;0.10;;;;;;;38.43;10.51;97986.59;5046463;28;20045;-85
2021/05/10 10:26:18;;;;;;;0.10;0.00;;;;;;;38.42;11.02;97987.88;5042821;28;20026;-84
2021/05/10 10:28:46;;;;;;;0.17;0.15;;;;;;;38.42;10.29;97977.19;5047739;28;20044;-84
2021/05/10 10:31:23;;;;;;;0.15;0.13;;;;;;;37.83;10.80;97983.63;5030374;28;20025;-87
2021/05/10 10:34:00;;;;;;;0.30;0.10;;;;;;;38.14;10.67;97988.09;5044327;28;20438;-86
2021/05/10 10:36:30;;;;;;;0.63;0.20;;;;;;;38.23;11.04;97978.41;5046626;28;20044;-86
2021/05/10 10:39:14;;;;;;;0.10;0.10;;;;;;;37.71;10.49;97987.09;5050477;28;20095;-87
2021/05/10 10:42:09;;;;;;;0.10;0.10;;;;;;;37.99;11.03;97967.63;5044145;28;20028;-85
2021/05/10 10:44:41;;;;;;;0.95;0.20;;;;;;;38.09;10.88;97970.94;5041062;28;20482;-84
2021/05/10 10:47:12;;;;;;;0.47;0.10;;;;;;;37.81;9.96;97979.75;5044858;28;20406;-84
2021/05/10 10:49:41;;;;;;;0.22;0.00;;;;;;;38.45;11.09;97981.09;5040992;28;20037;-84
2021/05/10 10:52:21;;;;;;;0.57;0.38;;;;;;;38.26;10.35;97974.44;5031619;28;20025;-84
2021/05/10 10:55:17;;;;;;;0.10;0.10;;;;;;;38.22;10.88;97977.63;5042311;28;20518;-85
2021/05/10 10:57:43;;;;;;;0.10;0.10;;;;;;;38.80;10.01;97983.09;5046419;28;20033;-85
2021/05/10 11:00:15;;;;;;;0.10;0.10;;;;;;;38.39;9.94;97968.91;5040729;28;20037;-85
2021/05/10 11:02:54;;;;;;;0.08;0.00;;;;;;;39.00;10.22;97968.28;5041082;28;20021;-85
2021/05/10 11:05:24;;;;;;;0.20;0.10;;;;;;;38.89;10.09;97974.13;5047158;28;20478;-85
2021/05/10 11:07:57;;;;;;;;;;;;;;;38.50;9.56;97971.66;5050206;28;20037;-84
2021/05/10 11:10:43;;;;;;;0.45;0.10;;;;;;;39.34;11.46;97978.06;5045318;28;19999;-85
2021/05/10 11:13:29;;;;;;;0.10;0.10;;;;;;;39.76;9.09;97973.56;5051152;28;20025;-86
2021/05/10 11:15:57;;;;;;;0.20;0.10;;;;;;;39.40;11.04;97966.50;5051150;28;20044;-85
2021/05/10 11:18:38;;;;;;;0.10;0.10;;;;;;;38.64;9.48;97970.47;5041564;28;20052;-85
2021/05/10 11:21:25;;;;;;;0.38;0.10;;;;;;;39.20;10.78;97964.91;5042508;28;20440;-86
2021/05/10 11:23:52;;;;;;;0.90;0.10;;;;;;;39.32;10.09;97960.59;5031383;28;20461;-85
2021/05/10 11:26:51;;;;;;;0.43;0.10;;;;;;;39.69;11.87;97965.56;5046232;28;20037;-85
2021/05/10 11:29:27;;;;;;;0.10;0.10;;;;;;;39.38;10.67;97941.94;5027554;28;20084;-85
2021/05/10 11:32:17;;;;;;;0.05;0.05;;;;;;;39.98;9.77;97951.00;5045492;28;20033;-85
2021/05/10 11:34:43;;;;;;;0.10;0.10;;;;;;;39.84;9.51;97945.75;5036078;28;20046;-85
2021/05/10 11:37:09;;;;;;;0.28;0.20;;;;;;;39.51;9.56;97949.88;5047141;28;20029;-85
2021/05/10 11:39:37;;;;;;;0.32;0.10;;;;;;;39.98;9.99;97947.38;5046152;28;20029;-86
2021/05/10 11:42:05;;;;;;;0.10;0.00;;;;;;;40.79;9.74;97939.94;5041394;28;20502;-86
2021/05/10 11:44:34;;;;;;;2.05;0.20;;;;;;;40.88;8.54;97945.28;5055261;28;20108;-86
2021/05/10 11:47:04;;;;;;;0.22;0.10;;;;;;;41.49;9.36;97934.56;5057312;28;20052;-86
2021/05/10 11:49:33;;;;;;;;;;;;;;;41.55;8.38;97938.09;5052986;28;20033;-87